sensor_id;sensor_type;location;lat;lon;timestamp;P1;durP1;ratioP1;P2;durP2;ratioP2
74636;SDS011;63141;54.616;39.754;2023-03-20T00:01:46;3.55;;;2.30;;
74636;SDS011;63141;54.616;39.754;2023-03-20T00:04:54;4.47;;;2.10;;
74636;SDS011;63141;54.616;39.754;2023-03-20T00:07:55;4.28;;;2.30;;
74636;SDS011;63141;54.616;39.754;2023-03-20T00:10:58;4.30;;;2.78;;
74636;SDS011;63141;54.616;39.754;2023-03-20T00:14:00;5.38;;;2.70;;
74636;SDS011;63141;54.616;39.754;2023-03-20T00:17:07;3.70;;;2.20;;
74636;SDS011;63141;54.616;39.754;2023-03-20T00:20:17;4.35;;;2.55;;
74636;SDS011;63141;54.616;39.754;2023-03-20T00:23:19;3.38;;;2.45;;
74636;SDS011;63141;54.616;39.754;2023-03-20T00:26:25;3.70;;;2.00;;
74636;SDS011;63141;54.616;39.754;2023-03-20T00:29:30;5.82;;;2.60;;
74636;SDS011;63141;54.616;39.754;2023-03-20T00:32:34;3.45;;;2.40;;
74636;SDS011;63141;54.616;39.754;2023-03-20T00:35:35;4.15;;;2.33;;
74636;SDS011;63141;54.616;39.754;2023-03-20T00:38:37;3.58;;;2.15;;
74636;SDS011;63141;54.616;39.754;2023-03-20T00:44:47;3.35;;;2.40;;
74636;SDS011;63141;54.616;39.754;2023-03-20T00:47:54;4.95;;;2.03;;
74636;SDS011;63141;54.616;39.754;2023-03-20T00:50:57;3.03;;;2.10;;
74636;SDS011;63141;54.616;39.754;2023-03-20T00:53:59;6.30;;;1.98;;
74636;SDS011;63141;54.616;39.754;2023-03-20T00:57:23;2.90;;;1.85;;
74636;SDS011;63141;54.616;39.754;2023-03-20T01:00:39;2.97;;;2.03;;
74636;SDS011;63141;54.616;39.754;2023-03-20T01:03:47;3.13;;;1.70;;
74636;SDS011;63141;54.616;39.754;2023-03-20T01:06:51;4.30;;;1.80;;
74636;SDS011;63141;54.616;39.754;2023-03-20T01:09:52;4.00;;;1.80;;
74636;SDS011;63141;54.616;39.754;2023-03-20T01:12:54;3.90;;;1.73;;
74636;SDS011;63141;54.616;39.754;2023-03-20T01:16:00;2.55;;;1.75;;
74636;SDS011;63141;54.616;39.754;2023-03-20T01:19:01;2.13;;;1.48;;
74636;SDS011;63141;54.616;39.754;2023-03-20T01:22:03;2.70;;;1.60;;
74636;SDS011;63141;54.616;39.754;2023-03-20T01:25:04;2.50;;;1.70;;
74636;SDS011;63141;54.616;39.754;2023-03-20T01:28:16;2.00;;;1.50;;
74636;SDS011;63141;54.616;39.754;2023-03-20T01:31:22;3.35;;;1.70;;
74636;SDS011;63141;54.616;39.754;2023-03-20T01:34:24;2.25;;;1.50;;
74636;SDS011;63141;54.616;39.754;2023-03-20T01:37:29;4.03;;;1.70;;
74636;SDS011;63141;54.616;39.754;2023-03-20T01:40:57;1.90;;;1.40;;
74636;SDS011;63141;54.616;39.754;2023-03-20T01:44:08;5.18;;;1.50;;
74636;SDS011;63141;54.616;39.754;2023-03-20T01:47:23;2.72;;;1.77;;
74636;SDS011;63141;54.616;39.754;2023-03-20T01:50:30;3.30;;;1.35;;
74636;SDS011;63141;54.616;39.754;2023-03-20T01:53:44;2.10;;;1.63;;
74636;SDS011;63141;54.616;39.754;2023-03-20T01:59:54;2.17;;;1.60;;
74636;SDS011;63141;54.616;39.754;2023-03-20T02:03:15;2.10;;;1.48;;
74636;SDS011;63141;54.616;39.754;2023-03-20T02:06:42;2.30;;;1.60;;
74636;SDS011;63141;54.616;39.754;2023-03-20T02:10:07;2.53;;;1.80;;
74636;SDS011;63141;54.616;39.754;2023-03-20T02:13:28;2.40;;;1.45;;
74636;SDS011;63141;54.616;39.754;2023-03-20T02:16:31;4.03;;;1.50;;
74636;SDS011;63141;54.616;39.754;2023-03-20T02:23:19;2.38;;;1.73;;
74636;SDS011;63141;54.616;39.754;2023-03-20T02:26:38;1.88;;;1.67;;
74636;SDS011;63141;54.616;39.754;2023-03-20T02:29:51;1.85;;;1.42;;
74636;SDS011;63141;54.616;39.754;2023-03-20T02:36:18;1.63;;;1.20;;
74636;SDS011;63141;54.616;39.754;2023-03-20T02:39:50;3.15;;;1.63;;
74636;SDS011;63141;54.616;39.754;2023-03-20T02:47:01;2.25;;;1.45;;
74636;SDS011;63141;54.616;39.754;2023-03-20T02:50:13;2.33;;;1.30;;
74636;SDS011;63141;54.616;39.754;2023-03-20T03:00:26;2.90;;;1.17;;
74636;SDS011;63141;54.616;39.754;2023-03-20T03:04:10;2.55;;;1.60;;
74636;SDS011;63141;54.616;39.754;2023-03-20T03:07:23;1.83;;;1.33;;
74636;SDS011;63141;54.616;39.754;2023-03-20T03:10:30;1.70;;;1.20;;
74636;SDS011;63141;54.616;39.754;2023-03-20T03:13:38;1.73;;;1.10;;
74636;SDS011;63141;54.616;39.754;2023-03-20T03:16:52;2.17;;;1.30;;
74636;SDS011;63141;54.616;39.754;2023-03-20T03:19:57;2.95;;;1.38;;
74636;SDS011;63141;54.616;39.754;2023-03-20T03:23:05;1.52;;;1.25;;
74636;SDS011;63141;54.616;39.754;2023-03-20T03:26:08;2.22;;;1.20;;
74636;SDS011;63141;54.616;39.754;2023-03-20T03:29:35;2.15;;;1.30;;
74636;SDS011;63141;54.616;39.754;2023-03-20T03:32:44;3.40;;;1.38;;
74636;SDS011;63141;54.616;39.754;2023-03-20T03:35:47;2.42;;;1.42;;
74636;SDS011;63141;54.616;39.754;2023-03-20T03:42:41;1.65;;;1.17;;
74636;SDS011;63141;54.616;39.754;2023-03-20T03:49:10;1.27;;;0.98;;
74636;SDS011;63141;54.616;39.754;2023-03-20T03:52:18;2.97;;;1.13;;
74636;SDS011;63141;54.616;39.754;2023-03-20T03:55:24;3.42;;;1.23;;
74636;SDS011;63141;54.616;39.754;2023-03-20T03:58:43;2.22;;;1.20;;
74636;SDS011;63141;54.616;39.754;2023-03-20T04:04:57;2.10;;;1.23;;
74636;SDS011;63141;54.616;39.754;2023-03-20T04:08:02;1.52;;;1.08;;
74636;SDS011;63141;54.616;39.754;2023-03-20T04:11:05;7.95;;;4.35;;
74636;SDS011;63141;54.616;39.754;2023-03-20T04:14:07;8.60;;;5.05;;
74636;SDS011;63141;54.616;39.754;2023-03-20T04:17:08;8.55;;;4.13;;
74636;SDS011;63141;54.616;39.754;2023-03-20T04:20:10;6.45;;;4.10;;
74636;SDS011;63141;54.616;39.754;2023-03-20T04:23:13;5.65;;;3.30;;
74636;SDS011;63141;54.616;39.754;2023-03-20T04:26:15;7.30;;;3.72;;
74636;SDS011;63141;54.616;39.754;2023-03-20T04:29:16;6.03;;;3.58;;
74636;SDS011;63141;54.616;39.754;2023-03-20T04:32:35;7.25;;;3.22;;
74636;SDS011;63141;54.616;39.754;2023-03-20T04:35:44;4.65;;;3.08;;
74636;SDS011;63141;54.616;39.754;2023-03-20T04:38:48;4.65;;;2.95;;
74636;SDS011;63141;54.616;39.754;2023-03-20T04:41:49;5.43;;;3.20;;
74636;SDS011;63141;54.616;39.754;2023-03-20T04:44:51;4.40;;;2.83;;
74636;SDS011;63141;54.616;39.754;2023-03-20T04:47:52;10.85;;;2.85;;
74636;SDS011;63141;54.616;39.754;2023-03-20T04:50:56;4.82;;;2.90;;
74636;SDS011;63141;54.616;39.754;2023-03-20T04:54:12;5.25;;;3.20;;
74636;SDS011;63141;54.616;39.754;2023-03-20T04:57:14;3.92;;;2.67;;
74636;SDS011;63141;54.616;39.754;2023-03-20T05:00:19;4.07;;;2.65;;
74636;SDS011;63141;54.616;39.754;2023-03-20T05:03:21;3.72;;;2.40;;
74636;SDS011;63141;54.616;39.754;2023-03-20T05:06:28;4.10;;;2.90;;
74636;SDS011;63141;54.616;39.754;2023-03-20T05:09:32;6.43;;;2.63;;
74636;SDS011;63141;54.616;39.754;2023-03-20T05:12:36;3.60;;;2.50;;
74636;SDS011;63141;54.616;39.754;2023-03-20T05:15:44;4.57;;;2.75;;
74636;SDS011;63141;54.616;39.754;2023-03-20T05:19:14;3.00;;;2.30;;
74636;SDS011;63141;54.616;39.754;2023-03-20T05:22:30;4.07;;;2.35;;
74636;SDS011;63141;54.616;39.754;2023-03-20T05:25:44;4.32;;;2.40;;
74636;SDS011;63141;54.616;39.754;2023-03-20T05:28:56;3.97;;;2.58;;
74636;SDS011;63141;54.616;39.754;2023-03-20T05:32:17;2.88;;;2.28;;
74636;SDS011;63141;54.616;39.754;2023-03-20T05:35:54;3.20;;;1.90;;
74636;SDS011;63141;54.616;39.754;2023-03-20T05:39:08;3.72;;;2.42;;
74636;SDS011;63141;54.616;39.754;2023-03-20T05:42:28;3.13;;;2.00;;
74636;SDS011;63141;54.616;39.754;2023-03-20T05:45:52;3.38;;;2.33;;
74636;SDS011;63141;54.616;39.754;2023-03-20T05:49:14;3.45;;;2.25;;
74636;SDS011;63141;54.616;39.754;2023-03-20T05:52:48;3.90;;;2.28;;
74636;SDS011;63141;54.616;39.754;2023-03-20T05:56:28;4.32;;;1.95;;
74636;SDS011;63141;54.616;39.754;2023-03-20T05:59:48;4.38;;;2.45;;
74636;SDS011;63141;54.616;39.754;2023-03-20T06:03:08;2.78;;;1.90;;
74636;SDS011;63141;54.616;39.754;2023-03-20T06:06:43;3.05;;;2.20;;
74636;SDS011;63141;54.616;39.754;2023-03-20T06:09:46;2.47;;;1.90;;
74636;SDS011;63141;54.616;39.754;2023-03-20T06:12:48;2.83;;;2.00;;
74636;SDS011;63141;54.616;39.754;2023-03-20T06:15:52;4.00;;;2.00;;
74636;SDS011;63141;54.616;39.754;2023-03-20T06:18:53;3.58;;;1.92;;
74636;SDS011;63141;54.616;39.754;2023-03-20T06:21:55;2.85;;;1.88;;
74636;SDS011;63141;54.616;39.754;2023-03-20T06:24:56;2.03;;;1.50;;
74636;SDS011;63141;54.616;39.754;2023-03-20T06:28:04;2.80;;;1.50;;
74636;SDS011;63141;54.616;39.754;2023-03-20T06:31:05;2.10;;;1.70;;
74636;SDS011;63141;54.616;39.754;2023-03-20T06:34:08;3.25;;;1.80;;
74636;SDS011;63141;54.616;39.754;2023-03-20T06:37:16;2.47;;;1.67;;
74636;SDS011;63141;54.616;39.754;2023-03-20T06:40:17;2.80;;;1.70;;
74636;SDS011;63141;54.616;39.754;2023-03-20T06:43:19;2.40;;;1.58;;
74636;SDS011;63141;54.616;39.754;2023-03-20T06:46:25;2.55;;;1.75;;
74636;SDS011;63141;54.616;39.754;2023-03-20T06:49:27;4.70;;;2.00;;
74636;SDS011;63141;54.616;39.754;2023-03-20T06:52:28;2.65;;;1.73;;
74636;SDS011;63141;54.616;39.754;2023-03-20T06:55:49;2.55;;;1.70;;
74636;SDS011;63141;54.616;39.754;2023-03-20T06:58:51;2.15;;;1.75;;
74636;SDS011;63141;54.616;39.754;2023-03-20T07:01:53;2.80;;;1.80;;
74636;SDS011;63141;54.616;39.754;2023-03-20T07:05:00;1.80;;;1.33;;
74636;SDS011;63141;54.616;39.754;2023-03-20T07:08:03;2.20;;;1.63;;
74636;SDS011;63141;54.616;39.754;2023-03-20T07:11:05;2.50;;;1.60;;
74636;SDS011;63141;54.616;39.754;2023-03-20T07:14:07;2.97;;;1.50;;
74636;SDS011;63141;54.616;39.754;2023-03-20T07:17:28;1.90;;;1.33;;
74636;SDS011;63141;54.616;39.754;2023-03-20T07:20:30;1.48;;;1.33;;
74636;SDS011;63141;54.616;39.754;2023-03-20T07:23:33;3.20;;;1.60;;
74636;SDS011;63141;54.616;39.754;2023-03-20T07:26:34;4.32;;;1.80;;
74636;SDS011;63141;54.616;39.754;2023-03-20T07:29:36;2.35;;;1.50;;
74636;SDS011;63141;54.616;39.754;2023-03-20T07:32:43;2.03;;;1.50;;
74636;SDS011;63141;54.616;39.754;2023-03-20T07:35:46;1.70;;;1.10;;
74636;SDS011;63141;54.616;39.754;2023-03-20T07:38:52;1.33;;;1.20;;
74636;SDS011;63141;54.616;39.754;2023-03-20T07:41:53;1.33;;;1.00;;
74636;SDS011;63141;54.616;39.754;2023-03-20T07:45:18;2.33;;;1.55;;
74636;SDS011;63141;54.616;39.754;2023-03-20T07:48:19;2.65;;;1.40;;
74636;SDS011;63141;54.616;39.754;2023-03-20T07:51:21;2.90;;;1.73;;
74636;SDS011;63141;54.616;39.754;2023-03-20T07:54:22;2.08;;;1.30;;
74636;SDS011;63141;54.616;39.754;2023-03-20T07:57:24;1.83;;;1.33;;
74636;SDS011;63141;54.616;39.754;2023-03-20T08:00:28;5.82;;;1.52;;
74636;SDS011;63141;54.616;39.754;2023-03-20T08:03:29;2.13;;;1.52;;
74636;SDS011;63141;54.616;39.754;2023-03-20T08:06:33;4.22;;;1.45;;
74636;SDS011;63141;54.616;39.754;2023-03-20T08:09:35;2.15;;;1.60;;
74636;SDS011;63141;54.616;39.754;2023-03-20T08:12:36;1.83;;;1.60;;
74636;SDS011;63141;54.616;39.754;2023-03-20T08:15:38;3.25;;;2.00;;
74636;SDS011;63141;54.616;39.754;2023-03-20T08:18:39;5.13;;;1.80;;
74636;SDS011;63141;54.616;39.754;2023-03-20T08:21:42;1.52;;;1.30;;
74636;SDS011;63141;54.616;39.754;2023-03-20T08:24:43;2.80;;;1.50;;
74636;SDS011;63141;54.616;39.754;2023-03-20T08:27:45;2.25;;;1.50;;
74636;SDS011;63141;54.616;39.754;2023-03-20T08:30:46;2.15;;;1.60;;
74636;SDS011;63141;54.616;39.754;2023-03-20T08:33:47;4.82;;;1.73;;
74636;SDS011;63141;54.616;39.754;2023-03-20T08:36:49;3.72;;;1.52;;
74636;SDS011;63141;54.616;39.754;2023-03-20T08:39:52;2.20;;;1.55;;
74636;SDS011;63141;54.616;39.754;2023-03-20T08:42:53;2.88;;;1.88;;
74636;SDS011;63141;54.616;39.754;2023-03-20T08:45:55;2.95;;;2.22;;
74636;SDS011;63141;54.616;39.754;2023-03-20T08:48:56;3.70;;;1.92;;
74636;SDS011;63141;54.616;39.754;2023-03-20T08:51:59;4.22;;;1.70;;
74636;SDS011;63141;54.616;39.754;2023-03-20T08:55:00;6.97;;;2.90;;
74636;SDS011;63141;54.616;39.754;2023-03-20T08:58:02;6.53;;;2.10;;
74636;SDS011;63141;54.616;39.754;2023-03-20T09:01:07;6.47;;;2.08;;
74636;SDS011;63141;54.616;39.754;2023-03-20T09:04:10;3.45;;;1.83;;
74636;SDS011;63141;54.616;39.754;2023-03-20T09:07:15;5.80;;;1.93;;
74636;SDS011;63141;54.616;39.754;2023-03-20T09:10:16;5.05;;;2.20;;
74636;SDS011;63141;54.616;39.754;2023-03-20T09:13:18;2.55;;;1.92;;
74636;SDS011;63141;54.616;39.754;2023-03-20T09:16:19;6.22;;;2.05;;
74636;SDS011;63141;54.616;39.754;2023-03-20T09:19:21;3.25;;;1.92;;
74636;SDS011;63141;54.616;39.754;2023-03-20T09:22:22;5.13;;;2.22;;
74636;SDS011;63141;54.616;39.754;2023-03-20T09:25:23;5.75;;;1.83;;
74636;SDS011;63141;54.616;39.754;2023-03-20T09:28:25;3.80;;;1.85;;
74636;SDS011;63141;54.616;39.754;2023-03-20T09:31:27;8.50;;;2.13;;
74636;SDS011;63141;54.616;39.754;2023-03-20T09:34:28;4.93;;;2.00;;
74636;SDS011;63141;54.616;39.754;2023-03-20T09:37:29;2.72;;;1.60;;
74636;SDS011;63141;54.616;39.754;2023-03-20T09:40:36;2.60;;;1.85;;
74636;SDS011;63141;54.616;39.754;2023-03-20T09:44:09;7.00;;;2.30;;
74636;SDS011;63141;54.616;39.754;2023-03-20T09:50:54;3.00;;;1.85;;
74636;SDS011;63141;54.616;39.754;2023-03-20T09:54:01;3.45;;;1.80;;
74636;SDS011;63141;54.616;39.754;2023-03-20T09:57:16;5.82;;;1.80;;
74636;SDS011;63141;54.616;39.754;2023-03-20T10:00:34;4.32;;;1.63;;
74636;SDS011;63141;54.616;39.754;2023-03-20T10:06:47;5.13;;;2.00;;
74636;SDS011;63141;54.616;39.754;2023-03-20T10:09:48;3.63;;;1.50;;
74636;SDS011;63141;54.616;39.754;2023-03-20T10:19:51;5.78;;;1.63;;
74636;SDS011;63141;54.616;39.754;2023-03-20T10:23:51;3.72;;;1.63;;
74636;SDS011;63141;54.616;39.754;2023-03-20T10:26:53;4.85;;;1.80;;
74636;SDS011;63141;54.616;39.754;2023-03-20T10:37:28;4.93;;;1.80;;
74636;SDS011;63141;54.616;39.754;2023-03-20T10:40:35;2.67;;;1.73;;
74636;SDS011;63141;54.616;39.754;2023-03-20T10:43:39;4.68;;;1.70;;
74636;SDS011;63141;54.616;39.754;2023-03-20T10:46:44;2.65;;;1.40;;
74636;SDS011;63141;54.616;39.754;2023-03-20T10:49:53;4.68;;;1.58;;
74636;SDS011;63141;54.616;39.754;2023-03-20T10:52:58;7.13;;;1.80;;
74636;SDS011;63141;54.616;39.754;2023-03-20T10:56:04;2.38;;;1.60;;
74636;SDS011;63141;54.616;39.754;2023-03-20T11:02:23;3.03;;;1.65;;
74636;SDS011;63141;54.616;39.754;2023-03-20T11:05:34;3.25;;;1.85;;
74636;SDS011;63141;54.616;39.754;2023-03-20T11:08:38;2.75;;;1.60;;
74636;SDS011;63141;54.616;39.754;2023-03-20T11:11:41;7.50;;;1.58;;
74636;SDS011;63141;54.616;39.754;2023-03-20T11:14:46;4.95;;;1.63;;
74636;SDS011;63141;54.616;39.754;2023-03-20T11:17:55;3.97;;;1.42;;
74636;SDS011;63141;54.616;39.754;2023-03-20T11:20:58;3.05;;;1.60;;
74636;SDS011;63141;54.616;39.754;2023-03-20T11:24:02;2.33;;;1.50;;
74636;SDS011;63141;54.616;39.754;2023-03-20T11:27:24;2.83;;;1.58;;
74636;SDS011;63141;54.616;39.754;2023-03-20T11:30:27;2.60;;;1.40;;
74636;SDS011;63141;54.616;39.754;2023-03-20T11:33:29;2.65;;;1.60;;
74636;SDS011;63141;54.616;39.754;2023-03-20T11:36:31;2.70;;;1.42;;
74636;SDS011;63141;54.616;39.754;2023-03-20T11:39:34;3.60;;;1.80;;
74636;SDS011;63141;54.616;39.754;2023-03-20T11:42:37;2.95;;;1.60;;
74636;SDS011;63141;54.616;39.754;2023-03-20T11:45:45;4.50;;;1.90;;
74636;SDS011;63141;54.616;39.754;2023-03-20T11:52:31;3.22;;;1.52;;
74636;SDS011;63141;54.616;39.754;2023-03-20T11:55:34;2.30;;;1.60;;
74636;SDS011;63141;54.616;39.754;2023-03-20T11:58:37;7.97;;;1.58;;
74636;SDS011;63141;54.616;39.754;2023-03-20T12:01:52;3.03;;;1.83;;
74636;SDS011;63141;54.616;39.754;2023-03-20T12:08:03;2.33;;;1.55;;
74636;SDS011;63141;54.616;39.754;2023-03-20T12:14:25;3.63;;;1.50;;
74636;SDS011;63141;54.616;39.754;2023-03-20T12:17:41;1.95;;;1.50;;
74636;SDS011;63141;54.616;39.754;2023-03-20T12:20:45;5.40;;;1.92;;
74636;SDS011;63141;54.616;39.754;2023-03-20T12:27:06;3.05;;;1.80;;
74636;SDS011;63141;54.616;39.754;2023-03-20T12:30:50;2.28;;;1.55;;
74636;SDS011;63141;54.616;39.754;2023-03-20T12:33:56;3.25;;;1.77;;
74636;SDS011;63141;54.616;39.754;2023-03-20T12:37:01;2.28;;;1.55;;
74636;SDS011;63141;54.616;39.754;2023-03-20T12:40:03;3.72;;;1.60;;
74636;SDS011;63141;54.616;39.754;2023-03-20T12:43:14;5.75;;;1.50;;
74636;SDS011;63141;54.616;39.754;2023-03-20T12:52:43;1.90;;;1.58;;
74636;SDS011;63141;54.616;39.754;2023-03-20T12:56:07;2.15;;;1.40;;
74636;SDS011;63141;54.616;39.754;2023-03-20T12:59:28;2.45;;;1.63;;
74636;SDS011;63141;54.616;39.754;2023-03-20T13:12:37;3.60;;;1.60;;
74636;SDS011;63141;54.616;39.754;2023-03-20T13:15:49;1.45;;;1.33;;
74636;SDS011;63141;54.616;39.754;2023-03-20T13:22:34;6.15;;;2.00;;
74636;SDS011;63141;54.616;39.754;2023-03-20T13:29:18;5.93;;;1.88;;
74636;SDS011;63141;54.616;39.754;2023-03-20T13:35:52;7.25;;;1.92;;
74636;SDS011;63141;54.616;39.754;2023-03-20T13:39:05;2.25;;;1.65;;
74636;SDS011;63141;54.616;39.754;2023-03-20T13:42:18;2.85;;;1.50;;
74636;SDS011;63141;54.616;39.754;2023-03-20T13:45:39;5.18;;;1.50;;
74636;SDS011;63141;54.616;39.754;2023-03-20T13:48:43;3.05;;;1.58;;
74636;SDS011;63141;54.616;39.754;2023-03-20T13:55:35;3.45;;;1.48;;
74636;SDS011;63141;54.616;39.754;2023-03-20T14:05:57;2.10;;;1.25;;
74636;SDS011;63141;54.616;39.754;2023-03-20T14:09:01;2.45;;;1.20;;
74636;SDS011;63141;54.616;39.754;2023-03-20T14:12:04;1.95;;;1.30;;
74636;SDS011;63141;54.616;39.754;2023-03-20T14:15:09;2.25;;;1.48;;
74636;SDS011;63141;54.616;39.754;2023-03-20T14:18:15;3.10;;;1.30;;
74636;SDS011;63141;54.616;39.754;2023-03-20T14:24:23;2.78;;;1.55;;
74636;SDS011;63141;54.616;39.754;2023-03-20T14:27:28;2.40;;;1.38;;
74636;SDS011;63141;54.616;39.754;2023-03-20T14:33:40;4.32;;;1.40;;
74636;SDS011;63141;54.616;39.754;2023-03-20T14:37:01;1.65;;;1.15;;
74636;SDS011;63141;54.616;39.754;2023-03-20T14:40:21;2.22;;;1.27;;
74636;SDS011;63141;54.616;39.754;2023-03-20T14:47:00;2.08;;;1.30;;
74636;SDS011;63141;54.616;39.754;2023-03-20T14:50:22;2.75;;;1.13;;
74636;SDS011;63141;54.616;39.754;2023-03-20T14:53:31;1.92;;;1.13;;
74636;SDS011;63141;54.616;39.754;2023-03-20T14:56:35;2.15;;;1.42;;
74636;SDS011;63141;54.616;39.754;2023-03-20T14:59:38;5.85;;;1.75;;
74636;SDS011;63141;54.616;39.754;2023-03-20T15:02:44;4.45;;;1.30;;
74636;SDS011;63141;54.616;39.754;2023-03-20T15:05:55;2.35;;;1.20;;
74636;SDS011;63141;54.616;39.754;2023-03-20T15:09:00;2.10;;;1.35;;
74636;SDS011;63141;54.616;39.754;2023-03-20T15:12:06;3.15;;;1.42;;
74636;SDS011;63141;54.616;39.754;2023-03-20T15:15:23;4.55;;;1.40;;
74636;SDS011;63141;54.616;39.754;2023-03-20T15:24:40;1.80;;;0.90;;
74636;SDS011;63141;54.616;39.754;2023-03-20T15:27:42;1.95;;;1.42;;
74636;SDS011;63141;54.616;39.754;2023-03-20T15:30:44;2.72;;;1.30;;
74636;SDS011;63141;54.616;39.754;2023-03-20T15:33:46;1.38;;;1.10;;
74636;SDS011;63141;54.616;39.754;2023-03-20T15:36:48;3.47;;;1.58;;
74636;SDS011;63141;54.616;39.754;2023-03-20T15:39:52;3.28;;;1.33;;
74636;SDS011;63141;54.616;39.754;2023-03-20T15:43:00;1.75;;;1.20;;
74636;SDS011;63141;54.616;39.754;2023-03-20T15:46:11;2.50;;;1.30;;
74636;SDS011;63141;54.616;39.754;2023-03-20T15:49:16;2.38;;;1.27;;
74636;SDS011;63141;54.616;39.754;2023-03-20T15:55:23;1.30;;;1.17;;
74636;SDS011;63141;54.616;39.754;2023-03-20T15:58:25;2.65;;;1.20;;
74636;SDS011;63141;54.616;39.754;2023-03-20T16:01:30;2.67;;;1.30;;
74636;SDS011;63141;54.616;39.754;2023-03-20T16:04:34;1.92;;;1.30;;
74636;SDS011;63141;54.616;39.754;2023-03-20T16:07:39;2.78;;;1.30;;
74636;SDS011;63141;54.616;39.754;2023-03-20T16:10:42;1.92;;;1.23;;
74636;SDS011;63141;54.616;39.754;2023-03-20T16:13:47;2.35;;;1.40;;
74636;SDS011;63141;54.616;39.754;2023-03-20T16:16:52;2.00;;;1.42;;
74636;SDS011;63141;54.616;39.754;2023-03-20T16:19:56;2.88;;;1.30;;
74636;SDS011;63141;54.616;39.754;2023-03-20T16:23:02;2.78;;;1.58;;
74636;SDS011;63141;54.616;39.754;2023-03-20T16:26:07;2.47;;;1.40;;
74636;SDS011;63141;54.616;39.754;2023-03-20T16:29:15;2.65;;;1.30;;
74636;SDS011;63141;54.616;39.754;2023-03-20T16:35:50;4.85;;;1.60;;
74636;SDS011;63141;54.616;39.754;2023-03-20T16:38:53;2.58;;;1.45;;
74636;SDS011;63141;54.616;39.754;2023-03-20T16:45:15;2.78;;;1.50;;
74636;SDS011;63141;54.616;39.754;2023-03-20T16:48:38;3.25;;;1.73;;
74636;SDS011;63141;54.616;39.754;2023-03-20T16:51:42;3.20;;;1.60;;
74636;SDS011;63141;54.616;39.754;2023-03-20T16:54:44;3.70;;;1.55;;
74636;SDS011;63141;54.616;39.754;2023-03-20T16:57:46;4.63;;;1.50;;
74636;SDS011;63141;54.616;39.754;2023-03-20T17:00:57;2.33;;;1.60;;
74636;SDS011;63141;54.616;39.754;2023-03-20T17:04:11;2.90;;;1.85;;
74636;SDS011;63141;54.616;39.754;2023-03-20T17:07:20;3.20;;;1.80;;
74636;SDS011;63141;54.616;39.754;2023-03-20T17:10:28;2.83;;;1.70;;
74636;SDS011;63141;54.616;39.754;2023-03-20T17:13:29;5.32;;;1.90;;
74636;SDS011;63141;54.616;39.754;2023-03-20T17:16:31;3.97;;;1.80;;
74636;SDS011;63141;54.616;39.754;2023-03-20T17:19:36;2.07;;;1.43;;
74636;SDS011;63141;54.616;39.754;2023-03-20T17:22:37;2.60;;;1.65;;
74636;SDS011;63141;54.616;39.754;2023-03-20T17:25:39;2.83;;;1.67;;
74636;SDS011;63141;54.616;39.754;2023-03-20T17:28:40;3.22;;;1.60;;
74636;SDS011;63141;54.616;39.754;2023-03-20T17:31:42;2.20;;;1.52;;
74636;SDS011;63141;54.616;39.754;2023-03-20T17:34:43;4.57;;;1.90;;
74636;SDS011;63141;54.616;39.754;2023-03-20T17:37:45;3.22;;;1.90;;
74636;SDS011;63141;54.616;39.754;2023-03-20T17:40:48;3.03;;;1.75;;
74636;SDS011;63141;54.616;39.754;2023-03-20T17:43:51;4.75;;;2.10;;
74636;SDS011;63141;54.616;39.754;2023-03-20T17:46:53;3.28;;;2.00;;
74636;SDS011;63141;54.616;39.754;2023-03-20T17:49:55;5.47;;;1.77;;
74636;SDS011;63141;54.616;39.754;2023-03-20T17:52:56;2.10;;;1.70;;
74636;SDS011;63141;54.616;39.754;2023-03-20T17:55:58;2.55;;;1.90;;
74636;SDS011;63141;54.616;39.754;2023-03-20T17:58:59;5.05;;;2.05;;
74636;SDS011;63141;54.616;39.754;2023-03-20T18:02:04;2.80;;;1.77;;
74636;SDS011;63141;54.616;39.754;2023-03-20T18:05:07;12.13;;;2.47;;
74636;SDS011;63141;54.616;39.754;2023-03-20T18:08:12;5.43;;;1.85;;
74636;SDS011;63141;54.616;39.754;2023-03-20T18:11:21;9.35;;;2.13;;
74636;SDS011;63141;54.616;39.754;2023-03-20T18:14:22;7.63;;;2.20;;
74636;SDS011;63141;54.616;39.754;2023-03-20T18:17:24;5.22;;;2.05;;
74636;SDS011;63141;54.616;39.754;2023-03-20T18:20:32;6.18;;;1.73;;
74636;SDS011;63141;54.616;39.754;2023-03-20T18:23:35;7.03;;;2.00;;
74636;SDS011;63141;54.616;39.754;2023-03-20T18:26:36;5.93;;;1.92;;
74636;SDS011;63141;54.616;39.754;2023-03-20T18:29:38;5.50;;;1.88;;
74636;SDS011;63141;54.616;39.754;2023-03-20T18:32:39;3.88;;;1.90;;
74636;SDS011;63141;54.616;39.754;2023-03-20T18:35:41;4.32;;;1.83;;
74636;SDS011;63141;54.616;39.754;2023-03-20T18:38:42;3.28;;;1.90;;
74636;SDS011;63141;54.616;39.754;2023-03-20T18:41:44;4.45;;;1.90;;
74636;SDS011;63141;54.616;39.754;2023-03-20T18:44:46;3.83;;;1.90;;
74636;SDS011;63141;54.616;39.754;2023-03-20T18:47:48;2.63;;;1.70;;
74636;SDS011;63141;54.616;39.754;2023-03-20T18:50:49;3.75;;;1.70;;
74636;SDS011;63141;54.616;39.754;2023-03-20T18:53:52;2.90;;;1.67;;
74636;SDS011;63141;54.616;39.754;2023-03-20T18:56:53;4.43;;;1.95;;
74636;SDS011;63141;54.616;39.754;2023-03-20T19:00:08;4.05;;;1.70;;
74636;SDS011;63141;54.616;39.754;2023-03-20T19:03:14;5.15;;;1.70;;
74636;SDS011;63141;54.616;39.754;2023-03-20T19:06:19;3.85;;;1.80;;
74636;SDS011;63141;54.616;39.754;2023-03-20T19:09:22;3.78;;;1.80;;
74636;SDS011;63141;54.616;39.754;2023-03-20T19:12:24;3.10;;;1.83;;
74636;SDS011;63141;54.616;39.754;2023-03-20T19:15:26;2.58;;;1.40;;
74636;SDS011;63141;54.616;39.754;2023-03-20T19:18:29;4.30;;;1.77;;
74636;SDS011;63141;54.616;39.754;2023-03-20T19:21:31;2.10;;;1.70;;
74636;SDS011;63141;54.616;39.754;2023-03-20T19:24:33;2.25;;;1.60;;
74636;SDS011;63141;54.616;39.754;2023-03-20T19:27:35;3.05;;;1.58;;
74636;SDS011;63141;54.616;39.754;2023-03-20T19:30:37;4.32;;;1.83;;
74636;SDS011;63141;54.616;39.754;2023-03-20T19:33:39;4.47;;;1.35;;
74636;SDS011;63141;54.616;39.754;2023-03-20T19:36:41;3.10;;;1.60;;
74636;SDS011;63141;54.616;39.754;2023-03-20T19:39:42;2.65;;;1.42;;
74636;SDS011;63141;54.616;39.754;2023-03-20T19:42:43;2.13;;;1.33;;
74636;SDS011;63141;54.616;39.754;2023-03-20T19:45:45;4.50;;;1.70;;
74636;SDS011;63141;54.616;39.754;2023-03-20T19:48:46;1.88;;;1.45;;
74636;SDS011;63141;54.616;39.754;2023-03-20T19:51:48;4.90;;;1.80;;
74636;SDS011;63141;54.616;39.754;2023-03-20T19:54:49;3.90;;;1.92;;
74636;SDS011;63141;54.616;39.754;2023-03-20T19:57:50;5.18;;;1.65;;
74636;SDS011;63141;54.616;39.754;2023-03-20T20:00:55;2.72;;;1.70;;
74636;SDS011;63141;54.616;39.754;2023-03-20T20:03:57;1.63;;;1.40;;
74636;SDS011;63141;54.616;39.754;2023-03-20T20:07:00;2.22;;;1.50;;
74636;SDS011;63141;54.616;39.754;2023-03-20T20:10:02;4.75;;;1.77;;
74636;SDS011;63141;54.616;39.754;2023-03-20T20:13:04;3.50;;;1.88;;
74636;SDS011;63141;54.616;39.754;2023-03-20T20:16:06;3.50;;;1.70;;
74636;SDS011;63141;54.616;39.754;2023-03-20T20:19:07;3.22;;;1.65;;
74636;SDS011;63141;54.616;39.754;2023-03-20T20:22:08;3.75;;;1.50;;
74636;SDS011;63141;54.616;39.754;2023-03-20T20:25:12;2.88;;;1.70;;
74636;SDS011;63141;54.616;39.754;2023-03-20T20:28:15;2.50;;;1.48;;
74636;SDS011;63141;54.616;39.754;2023-03-20T20:31:25;2.85;;;1.73;;
74636;SDS011;63141;54.616;39.754;2023-03-20T20:34:30;4.13;;;1.60;;
74636;SDS011;63141;54.616;39.754;2023-03-20T20:37:31;2.13;;;1.50;;
74636;SDS011;63141;54.616;39.754;2023-03-20T20:40:36;3.35;;;1.83;;
74636;SDS011;63141;54.616;39.754;2023-03-20T20:43:37;3.90;;;1.75;;